Time;durP1;ratioP1;P1;durP2;ratioP2;P2;SDS_P1;SDS_P2;PMS_P1;PMS_P2;Temp;Humidity;BMP_temperature;BMP_pressure;BME280_temperature;BME280_humidity;BME280_pressure;Samples;Min_cycle;Max_cycle;Signal;HPM_P1;HPM_P2
2023/02/07 00:00:34;;;;;;;25.20;16.15;;;1.40;99.90;;;;;;5047849;28;20253;-75
2023/02/07 00:03:01;;;;;;;23.55;15.65;;;1.40;99.90;;;;;;5047270;28;20212;-73
2023/02/07 00:05:28;;;;;;;30.05;16.92;;;1.40;99.90;;;;;;5048607;28;20227;-73
2023/02/07 00:07:57;;;;;;;20.98;14.90;;;1.40;99.90;;;;;;5050875;28;20206;-74
2023/02/07 00:10:24;;;;;;;25.92;16.75;;;1.40;99.90;;;;;;5050033;28;20227;-76
2023/02/07 00:12:51;;;;;;;29.90;17.23;;;1.30;99.90;;;;;;5052177;28;20250;-76
2023/02/07 00:15:18;;;;;;;30.45;16.05;;;1.30;99.90;;;;;;5052448;28;20313;-73
2023/02/07 00:17:45;;;;;;;26.88;16.73;;;1.20;99.90;;;;;;5053991;28;20207;-75
2023/02/07 00:20:12;;;;;;;27.50;17.90;;;1.30;99.90;;;;;;5050313;28;20259;-75
2023/02/07 00:22:39;;;;;;;31.38;17.73;;;1.20;99.90;;;;;;5054076;28;20287;-74
2023/02/07 00:25:07;;;;;;;24.83;16.77;;;1.20;99.90;;;;;;5052096;28;20791;-75
2023/02/07 00:27:34;;;;;;;25.60;16.77;;;1.20;99.90;;;;;;5046029;28;20624;-75
2023/02/07 00:30:08;;;;;;;28.48;17.33;;;1.20;99.90;;;;;;5053991;28;20253;-73
2023/02/07 00:32:35;;;;;;;25.30;17.05;;;1.20;99.90;;;;;;5054326;28;20207;-76
2023/02/07 00:35:27;;;;;;;27.27;19.10;;;1.10;99.90;;;;;;5054479;28;20232;-75
2023/02/07 00:37:54;;;;;;;28.10;17.83;;;1.10;99.90;;;;;;5053513;28;20286;-74
2023/02/07 00:40:25;;;;;;;28.60;18.35;;;1.00;99.90;;;;;;5053306;28;20726;-74
2023/02/07 00:42:52;;;;;;;27.48;18.08;;;1.00;99.90;;;;;;5053482;28;20235;-75
2023/02/07 00:45:23;;;;;;;27.00;17.30;;;1.10;99.90;;;;;;5053278;28;20306;-75
2023/02/07 00:47:50;;;;;;;28.48;18.70;;;1.00;99.90;;;;;;5049602;28;20602;-76
2023/02/07 00:50:17;;;;;;;20.63;15.25;;;1.00;99.90;;;;;;5050660;28;20213;-74
2023/02/07 00:52:44;;;;;;;33.33;19.13;;;1.00;99.90;;;;;;5053355;28;20224;-74
2023/02/07 00:55:11;;;;;;;26.70;17.85;;;1.00;99.90;;;;;;5053242;28;20700;-74
2023/02/07 00:57:39;;;;;;;32.38;17.17;;;1.00;99.90;;;;;;5053390;28;20240;-74
2023/02/07 01:00:09;;;;;;;29.77;20.58;;;1.00;99.90;;;;;;5048613;28;20230;-73
2023/02/07 01:02:36;;;;;;;29.23;17.17;;;1.00;99.90;;;;;;5046979;28;20254;-75
2023/02/07 01:05:03;;;;;;;29.77;16.13;;;1.00;99.90;;;;;;5053862;28;20227;-75
2023/02/07 01:07:30;;;;;;;26.30;18.08;;;1.10;99.90;;;;;;5051969;28;20199;-73
2023/02/07 01:09:57;;;;;;;26.55;18.50;;;1.00;99.90;;;;;;5050673;28;20280;-73
2023/02/07 01:12:27;;;;;;;29.50;18.35;;;1.00;99.90;;;;;;5052225;28;20682;-76
2023/02/07 01:14:56;;;;;;;23.73;15.57;;;0.90;99.90;;;;;;5049184;28;20230;-74
2023/02/07 01:17:24;;;;;;;25.70;19.23;;;0.80;99.90;;;;;;5042804;28;20247;-74
2023/02/07 01:19:55;;;;;;;31.52;18.15;;;0.80;99.90;;;;;;5052741;28;20688;-71
2023/02/07 01:22:22;;;;;;;30.30;17.65;;;0.70;99.90;;;;;;5051674;28;20223;-74
2023/02/07 01:24:50;;;;;;;31.13;19.25;;;0.70;99.90;;;;;;5048166;28;20271;-73
2023/02/07 01:27:16;;;;;;;30.20;18.05;;;0.70;99.90;;;;;;5039540;28;20741;-76
2023/02/07 01:29:46;;;;;;;39.05;20.63;;;0.70;99.90;;;;;;5040357;28;20203;-74
2023/02/07 01:32:14;;;;;;;29.88;18.90;;;0.70;99.90;;;;;;5052594;28;20247;-74
2023/02/07 01:34:42;;;;;;;30.08;19.63;;;0.70;99.90;;;;;;5051319;28;20200;-76
2023/02/07 01:37:09;;;;;;;30.23;19.95;;;0.70;99.90;;;;;;5053073;28;20235;-74
2023/02/07 01:39:36;;;;;;;32.55;18.33;;;0.70;99.90;;;;;;5052766;28;20245;-74
2023/02/07 01:42:03;;;;;;;35.42;17.80;;;0.70;99.90;;;;;;5051219;28;20647;-75
2023/02/07 01:45:04;;;;;;;26.60;16.65;;;0.70;99.90;;;;;;5052784;28;20246;-73
2023/02/07 01:47:33;;;;;;;24.65;17.50;;;0.70;99.90;;;;;;5038462;28;20287;-73
2023/02/07 01:50:01;;;;;;;39.03;20.42;;;0.70;99.90;;;;;;5045264;28;20215;-73
2023/02/07 01:52:33;;;;;;;35.05;18.48;;;0.70;99.90;;;;;;5052224;28;20315;-74
2023/02/07 01:55:09;;;;;;;32.35;20.80;;;0.70;99.90;;;;;;5047711;28;20269;-76
2023/02/07 01:57:37;;;;;;;29.30;19.50;;;0.60;99.90;;;;;;5041430;28;20228;-74
2023/02/07 02:00:05;;;;;;;30.10;19.38;;;0.70;99.90;;;;;;5047289;28;20196;-74
2023/02/07 02:02:36;;;;;;;28.58;19.92;;;0.60;99.90;;;;;;5052898;28;20592;-75
2023/02/07 02:05:04;;;;;;;30.30;17.70;;;0.60;99.90;;;;;;5044068;28;20247;-73
2023/02/07 02:07:32;;;;;;;35.17;18.45;;;0.50;99.90;;;;;;5049658;28;20562;-76
2023/02/07 02:09:59;;;;;;;31.85;19.05;;;0.60;99.90;;;;;;5046174;28;20208;-75
2023/02/07 02:12:42;;;;;;;26.90;18.38;;;0.60;99.90;;;;;;5052362;28;20216;-75
2023/02/07 02:15:29;;;;;;;31.38;18.95;;;0.50;99.90;;;;;;5050739;28;20228;-74
2023/02/07 02:18:09;;;;;;;25.90;17.98;;;0.60;99.90;;;;;;5044793;28;20279;-76
2023/02/07 02:21:15;;;;;;;28.98;19.58;;;0.60;99.90;;;;;;5048668;28;20239;-76
2023/02/07 02:23:58;;;;;;;38.25;19.75;;;0.50;99.90;;;;;;5039515;28;20253;-75
2023/02/07 02:27:03;;;;;;;29.33;19.00;;;0.50;99.90;;;;;;5050712;28;20693;-74
2023/02/07 02:30:32;;;;;;;25.35;17.50;;;0.50;99.90;;;;;;5052198;28;20262;-73
2023/02/07 02:33:39;;;;;;;25.83;18.55;;;0.50;99.90;;;;;;5035967;28;20281;-76
2023/02/07 02:36:13;;;;;;;29.77;18.88;;;0.40;99.90;;;;;;5054808;28;20223;-76
2023/02/07 02:38:50;;;;;;;27.42;17.85;;;0.40;99.90;;;;;;5043708;28;20647;-72
2023/02/07 02:41:23;;;;;;;27.70;19.52;;;0.40;99.90;;;;;;5054770;28;20198;-73
2023/02/07 02:43:57;;;;;;;27.45;18.25;;;0.30;99.90;;;;;;5058793;28;20211;-74
2023/02/07 02:46:28;;;;;;;30.02;18.67;;;0.30;99.90;;;;;;5053012;28;20219;-74
2023/02/07 02:48:59;;;;;;;29.15;18.52;;;0.20;99.90;;;;;;5056139;28;20302;-72
2023/02/07 02:51:29;;;;;;;34.00;19.20;;;0.20;99.90;;;;;;5056022;28;20253;-75
2023/02/07 02:53:58;;;;;;;29.35;19.80;;;0.20;99.90;;;;;;5056011;28;20242;-74
2023/02/07 02:56:54;;;;;;;23.23;17.10;;;0.20;99.90;;;;;;5062546;28;20222;-74
2023/02/07 03:00:05;;;;;;;29.88;19.48;;;0.10;99.90;;;;;;5052482;28;20204;-75
2023/02/07 03:02:48;;;;;;;27.38;17.58;;;0.10;99.90;;;;;;4994775;28;20194;-74
2023/02/07 03:05:38;;;;;;;26.75;18.55;;;0.10;99.90;;;;;;5007125;28;20230;-75
2023/02/07 03:08:13;;;;;;;27.40;16.45;;;0.10;99.90;;;;;;5055086;28;20286;-73
2023/02/07 03:10:46;;;;;;;25.58;17.70;;;0.00;99.90;;;;;;5049885;28;20199;-75
2023/02/07 03:13:33;;;;;;;30.15;18.67;;;0.00;99.90;;;;;;5061999;28;20217;-74
2023/02/07 03:16:23;;;;;;;29.20;18.08;;;-0.10;99.90;;;;;;5057270;28;20220;-73
2023/02/07 03:19:17;;;;;;;28.42;18.50;;;-0.10;99.90;;;;;;5043526;28;20223;-74
2023/02/07 03:21:48;;;;;;;32.15;18.45;;;-0.20;99.90;;;;;;5043763;28;20198;-72
2023/02/07 03:24:40;;;;;;;29.45;18.90;;;-0.20;99.90;;;;;;5056159;28;20261;-72
2023/02/07 03:27:11;;;;;;;28.35;18.02;;;-0.20;99.90;;;;;;5042774;28;20229;-75
2023/02/07 03:29:41;;;;;;;29.38;17.23;;;-0.10;99.90;;;;;;5056753;28;20650;-74
2023/02/07 03:32:13;;;;;;;26.00;17.02;;;-0.10;99.90;;;;;;5056026;28;20251;-73
2023/02/07 03:34:46;;;;;;;24.63;17.92;;;-0.20;99.90;;;;;;5056864;28;20226;-76
2023/02/07 03:37:21;;;;;;;27.02;18.35;;;-0.20;99.90;;;;;;5056465;28;20246;-75
2023/02/07 03:39:49;;;;;;;22.88;17.52;;;-0.20;99.90;;;;;;5051015;28;20199;-75
2023/02/07 03:42:38;;;;;;;33.95;19.75;;;-0.20;99.90;;;;;;5049052;28;20286;-73
2023/02/07 03:45:09;;;;;;;29.98;18.65;;;-0.10;99.90;;;;;;5044197;28;20731;-74
2023/02/07 03:48:18;;;;;;;32.58;19.52;;;-0.20;99.90;;;;;;5057465;28;20666;-75
2023/02/07 03:50:47;;;;;;;26.10;18.77;;;-0.20;99.90;;;;;;5051863;28;20278;-73
2023/02/07 03:53:15;;;;;;;28.15;18.20;;;-0.20;99.90;;;;;;5054126;28;20245;-74
2023/02/07 03:55:42;;;;;;;23.75;17.90;;;-0.10;99.90;;;;;;5044222;28;20247;-75
2023/02/07 03:58:18;;;;;;;30.13;18.80;;;-0.10;99.90;;;;;;5045389;28;20199;-76
2023/02/07 04:00:45;;;;;;;25.98;17.50;;;-0.20;99.90;;;;;;5056876;28;20195;-76
2023/02/07 04:03:12;;;;;;;26.38;18.08;;;-0.20;99.90;;;;;;5051913;28;20258;-73
2023/02/07 04:05:39;;;;;;;31.55;18.35;;;-0.30;99.90;;;;;;5054919;28;20749;-74
2023/02/07 04:08:06;;;;;;;31.05;18.40;;;-0.30;99.90;;;;;;5054118;28;20234;-72
2023/02/07 04:10:34;;;;;;;28.75;18.75;;;-0.30;99.90;;;;;;5054249;28;20196;-72
2023/02/07 04:13:01;;;;;;;27.05;18.15;;;-0.30;99.90;;;;;;5047329;28;20232;-75
2023/02/07 04:15:28;;;;;;;35.50;20.35;;;-0.30;99.90;;;;;;5054382;28;20716;-75
2023/02/07 04:18:05;;;;;;;26.92;18.27;;;-0.30;99.90;;;;;;5051579;28;20208;-76
2023/02/07 04:20:31;;;;;;;30.92;19.70;;;-0.40;99.90;;;;;;5043289;28;20214;-74
2023/02/07 04:22:58;;;;;;;26.95;18.00;;;-0.40;99.90;;;;;;5054635;28;20222;-74
2023/02/07 04:25:34;;;;;;;30.85;21.08;;;-0.40;99.90;;;;;;5041932;28;20253;-75
2023/02/07 04:28:00;;;;;;;28.10;18.75;;;-0.40;99.90;;;;;;5048259;28;20653;-74
2023/02/07 04:30:56;;;;;;;29.50;19.15;;;-0.50;99.90;;;;;;5053128;28;20238;-76
2023/02/07 04:33:23;;;;;;;36.35;22.35;;;-0.50;99.90;;;;;;5049874;28;20683;-73
2023/02/07 04:35:55;;;;;;;29.20;20.08;;;-0.50;99.90;;;;;;5046350;28;20227;-74
2023/02/07 04:38:22;;;;;;;32.65;19.77;;;-0.50;99.90;;;;;;5040643;28;20288;-74
2023/02/07 04:40:50;;;;;;;31.85;18.98;;;-0.50;99.90;;;;;;5048750;28;20658;-74
2023/02/07 04:43:17;;;;;;;29.48;19.80;;;-0.50;99.90;;;;;;5046924;28;20191;-76
2023/02/07 04:45:46;;;;;;;28.58;19.95;;;-0.40;99.90;;;;;;5051013;28;20251;-73
2023/02/07 04:48:13;;;;;;;31.73;19.25;;;-0.30;99.90;;;;;;5058034;28;20211;-73
2023/02/07 04:50:41;;;;;;;31.48;18.95;;;-0.40;99.90;;;;;;5052775;28;20299;-73
2023/02/07 04:53:08;;;;;;;28.30;20.40;;;-0.40;99.90;;;;;;5051510;28;20302;-75
2023/02/07 04:55:36;;;;;;;32.90;19.23;;;-0.40;99.90;;;;;;5048157;28;20242;-73
2023/02/07 04:58:04;;;;;;;33.00;20.75;;;-0.50;99.90;;;;;;5048370;28;20214;-72
2023/02/07 05:00:33;;;;;;;34.60;22.50;;;-0.50;99.90;;;;;;5049292;28;20658;-73
2023/02/07 05:03:00;;;;;;;35.67;22.05;;;-0.50;99.90;;;;;;5041252;28;20607;-76
2023/02/07 05:05:27;;;;;;;27.10;20.70;;;-0.50;99.90;;;;;;5050162;28;20216;-75
2023/02/07 05:07:54;;;;;;;38.83;22.65;;;-0.60;99.90;;;;;;5047665;28;20235;-74
2023/02/07 05:10:27;;;;;;;33.55;20.15;;;-0.60;99.90;;;;;;5052158;28;20200;-72
2023/02/07 05:12:54;;;;;;;35.45;21.23;;;-0.60;99.90;;;;;;5053770;28;20261;-74
2023/02/07 05:15:31;;;;;;;56.88;31.90;;;-0.60;99.90;;;;;;5053511;28;20228;-74
2023/02/07 05:17:58;;;;;;;39.05;23.40;;;-0.60;99.90;;;;;;5051859;28;20207;-76
2023/02/07 05:20:26;;;;;;;38.15;21.55;;;-0.50;99.90;;;;;;5052085;28;20264;-73
2023/02/07 05:22:55;;;;;;;33.05;21.35;;;-0.60;99.90;;;;;;5051994;28;20204;-75
2023/02/07 05:25:22;;;;;;;44.13;23.08;;;-0.60;99.90;;;;;;5049391;28;20269;-74
2023/02/07 05:27:49;;;;;;;30.55;19.55;;;-0.60;99.90;;;;;;5051996;28;20257;-75
2023/02/07 05:30:16;;;;;;;29.42;20.80;;;-0.50;99.90;;;;;;5052109;28;20294;-74
2023/02/07 05:35:29;;;;;;;42.00;22.40;;;-0.40;99.90;;;;;;5047210;28;20254;-71
2023/02/07 05:37:56;;;;;;;38.58;21.75;;;-0.40;99.90;;;;;;5049039;28;20200;-72
2023/02/07 05:40:25;;;;;;;33.35;21.65;;;-0.40;99.90;;;;;;5052407;28;20358;-75
2023/02/07 05:42:52;;;;;;;39.30;24.25;;;-0.30;99.90;;;;;;5051885;28;20288;-74
2023/02/07 05:45:19;;;;;;;35.70;22.33;;;-0.40;99.90;;;;;;5052763;28;20640;-74
2023/02/07 05:47:47;;;;;;;32.10;20.13;;;-0.40;99.90;;;;;;5053746;28;20830;-74
2023/02/07 05:50:15;;;;;;;31.83;20.10;;;-0.40;99.90;;;;;;5050131;28;20262;-72
2023/02/07 05:52:42;;;;;;;34.28;22.35;;;-0.40;99.90;;;;;;5047275;28;20624;-74
2023/02/07 05:55:14;;;;;;;32.38;21.65;;;-0.50;99.90;;;;;;5048131;28;20839;-73
2023/02/07 05:57:41;;;;;;;35.95;22.88;;;-0.50;99.90;;;;;;5052446;28;20206;-72
2023/02/07 06:00:11;;;;;;;30.33;20.45;;;-0.40;99.90;;;;;;5039426;28;20207;-72
2023/02/07 06:02:38;;;;;;;32.97;21.40;;;-0.40;99.90;;;;;;5046286;28;20202;-71
2023/02/07 06:05:08;;;;;;;39.35;24.20;;;-0.40;99.90;;;;;;5040244;28;20338;-76
2023/02/07 06:07:35;;;;;;;34.00;22.67;;;-0.40;99.90;;;;;;5041321;28;20600;-72
2023/02/07 06:10:02;;;;;;;34.17;21.88;;;-0.30;99.90;;;;;;5039526;28;20906;-74
2023/02/07 06:12:29;;;;;;;31.38;20.88;;;-0.30;99.90;;;;;;5048479;28;20203;-74
2023/02/07 06:14:56;;;;;;;32.88;21.40;;;-0.30;99.90;;;;;;5052017;28;20225;-74
2023/02/07 06:17:23;;;;;;;31.05;20.80;;;-0.30;99.90;;;;;;5051500;28;20286;-73
2023/02/07 06:19:50;;;;;;;39.28;22.85;;;-0.30;99.90;;;;;;5051287;28;20568;-75
2023/02/07 06:22:19;;;;;;;33.25;23.15;;;-0.40;99.90;;;;;;5044968;28;20223;-74
2023/02/07 06:24:46;;;;;;;36.63;23.83;;;-0.40;99.90;;;;;;5050052;28;20290;-73
2023/02/07 06:27:13;;;;;;;33.33;21.58;;;-0.40;99.90;;;;;;5048552;28;20297;-74
2023/02/07 06:29:40;;;;;;;32.08;22.35;;;-0.40;99.90;;;;;;5051360;28;20225;-74
2023/02/07 06:32:07;;;;;;;33.78;21.70;;;-0.40;99.90;;;;;;5048914;28;20273;-77
2023/02/07 06:34:34;;;;;;;37.17;22.20;;;-0.40;99.90;;;;;;5047565;28;20262;-74
2023/02/07 06:37:01;;;;;;;32.97;20.65;;;-0.30;99.90;;;;;;5049868;28;20266;-76
2023/02/07 06:39:29;;;;;;;32.38;21.00;;;-0.20;99.90;;;;;;5051019;28;20614;-76
2023/02/07 06:41:56;;;;;;;33.88;22.35;;;-0.30;99.90;;;;;;5052580;28;20238;-76
2023/02/07 06:44:23;;;;;;;35.25;22.85;;;-0.40;99.90;;;;;;5052936;28;20285;-74
2023/02/07 06:46:50;;;;;;;30.70;21.98;;;-0.40;99.90;;;;;;5049523;28;20277;-75
2023/02/07 06:49:17;;;;;;;35.55;21.10;;;-0.40;99.90;;;;;;5053726;28;20673;-74
2023/02/07 06:51:44;;;;;;;41.00;22.58;;;-0.30;99.90;;;;;;5049494;28;20617;-74
2023/02/07 06:54:11;;;;;;;35.03;22.65;;;-0.40;99.90;;;;;;5041082;28;20227;-76
2023/02/07 06:56:39;;;;;;;33.45;23.73;;;-0.40;99.90;;;;;;5050980;28;20247;-74
2023/02/07 06:59:06;;;;;;;35.95;22.67;;;-0.40;99.90;;;;;;5051272;28;20224;-72
2023/02/07 07:01:33;;;;;;;31.88;22.25;;;-0.40;99.90;;;;;;5050549;28;20224;-73
2023/02/07 07:04:00;;;;;;;33.08;20.42;;;-0.30;99.90;;;;;;5050128;28;20232;-75
2023/02/07 07:06:27;;;;;;;29.45;20.95;;;-0.20;99.90;;;;;;5051636;28;20223;-74
2023/02/07 07:08:54;;;;;;;33.72;21.02;;;-0.20;99.90;;;;;;5051442;28;20291;-76
2023/02/07 07:11:21;;;;;;;35.15;21.83;;;-0.30;99.90;;;;;;5051139;28;20322;-74
2023/02/07 07:13:50;;;;;;;29.70;20.58;;;-0.30;99.90;;;;;;5051009;28;20625;-70
2023/02/07 07:16:17;;;;;;;38.38;22.10;;;-0.40;99.90;;;;;;5050202;28;20242;-76
2023/02/07 07:18:44;;;;;;;33.97;22.92;;;-0.30;99.90;;;;;;5051290;28;20226;-76
2023/02/07 07:21:11;;;;;;;30.70;22.65;;;-0.40;99.90;;;;;;5044427;28;20610;-77
2023/02/07 07:23:38;;;;;;;37.40;20.25;;;-0.30;99.90;;;;;;5051010;28;20200;-80
2023/02/07 07:26:06;;;;;;;33.80;22.98;;;-0.20;99.90;;;;;;5058148;28;20238;-73
2023/02/07 07:28:35;;;;;;;32.35;22.27;;;0.00;99.90;;;;;;5049737;28;20206;-73
2023/02/07 07:31:05;;;;;;;38.55;24.65;;;0.40;99.90;;;;;;5051054;28;20214;-78
2023/02/07 07:33:32;;;;;;;27.10;20.98;;;1.00;99.90;;;;;;5038318;28;20291;-76
2023/02/07 07:36:02;;;;;;;23.80;17.65;;;1.40;99.90;;;;;;5039402;28;20224;-77
2023/02/07 07:38:32;;;;;;;28.77;18.75;;;2.00;99.90;;;;;;5040025;28;20200;-76
2023/02/07 07:40:59;;;;;;;23.10;18.00;;;2.20;99.90;;;;;;5038147;28;20205;-75
2023/02/07 07:43:27;;;;;;;22.40;17.20;;;2.30;99.90;;;;;;5038793;28;20231;-75
2023/02/07 07:45:55;;;;;;;23.42;16.40;;;2.70;99.90;;;;;;5038045;28;20700;-77
2023/02/07 07:48:24;;;;;;;25.40;17.08;;;2.90;99.90;;;;;;5037581;28;20335;-76
2023/02/07 07:50:52;;;;;;;18.95;13.63;;;3.20;99.90;;;;;;5037318;28;20215;-76
2023/02/07 07:53:20;;;;;;;20.63;16.90;;;3.60;99.90;;;;;;5043930;28;20215;-73
2023/02/07 07:55:50;;;;;;;24.00;15.52;;;4.10;99.90;;;;;;5055685;28;20225;-74
2023/02/07 07:58:17;;;;;;;21.58;14.50;;;4.40;99.90;;;;;;5049485;28;20213;-74
2023/02/07 08:00:44;;;;;;;18.13;14.18;;;4.60;99.90;;;;;;5042429;28;20201;-73
2023/02/07 08:03:12;;;;;;;21.27;14.45;;;5.10;99.90;;;;;;5045357;28;20650;-72
2023/02/07 08:05:43;;;;;;;15.48;13.45;;;5.60;99.90;;;;;;5046333;28;20231;-73
2023/02/07 08:08:11;;;;;;;18.08;13.65;;;6.20;99.90;;;;;;5053923;28;20199;-71
2023/02/07 08:10:39;;;;;;;18.13;13.32;;;6.90;99.90;;;;;;5049789;28;20238;-71
2023/02/07 08:13:06;;;;;;;18.40;14.02;;;7.60;99.90;;;;;;5048895;28;20199;-73
2023/02/07 08:15:33;;;;;;;17.60;13.57;;;8.30;99.90;;;;;;5042398;28;20284;-72
2023/02/07 08:18:01;;;;;;;16.42;13.75;;;8.80;99.90;;;;;;5053904;28;20200;-75
2023/02/07 08:20:28;;;;;;;15.65;12.35;;;9.20;98.80;;;;;;5047124;28;20199;-72
2023/02/07 08:22:57;;;;;;;17.00;13.20;;;9.50;96.30;;;;;;5048667;28;20207;-72
2023/02/07 08:25:24;;;;;;;13.70;12.27;;;9.70;96.10;;;;;;5043757;28;20296;-71
2023/02/07 08:27:52;;;;;;;17.20;13.60;;;10.10;94.10;;;;;;5053176;28;20206;-71
2023/02/07 08:30:19;;;;;;;18.42;13.27;;;10.50;94.10;;;;;;5050645;28;20297;-71
2023/02/07 08:32:46;;;;;;;14.55;12.68;;;10.80;91.90;;;;;;5053904;28;20218;-72
2023/02/07 08:35:13;;;;;;;17.27;14.13;;;11.10;91.10;;;;;;5052021;28;20253;-73
2023/02/07 08:37:40;;;;;;;16.80;13.07;;;11.00;90.40;;;;;;5052296;28;20243;-73
2023/02/07 08:40:10;;;;;;;18.33;14.75;;;11.60;90.60;;;;;;5052730;28;20203;-73
2023/02/07 08:42:37;;;;;;;21.55;15.52;;;11.90;89.80;;;;;;5050377;28;20658;-73
2023/02/07 08:45:04;;;;;;;17.30;14.40;;;12.10;88.70;;;;;;5051950;28;20603;-74
2023/02/07 08:47:32;;;;;;;16.98;14.43;;;12.30;88.80;;;;;;5051700;28;20227;-72
2023/02/07 08:49:59;;;;;;;15.45;13.55;;;12.30;85.40;;;;;;5049599;28;20241;-74
2023/02/07 08:52:26;;;;;;;16.98;14.18;;;12.30;86.70;;;;;;5049400;28;20256;-73
2023/02/07 08:54:53;;;;;;;18.88;14.02;;;12.50;87.40;;;;;;5046992;28;20682;-71
2023/02/07 08:57:23;;;;;;;14.57;13.10;;;12.50;86.00;;;;;;5043735;28;20271;-72
2023/02/07 08:59:50;;;;;;;14.80;13.20;;;12.50;85.70;;;;;;5042836;28;20659;-72
2023/02/07 09:02:17;;;;;;;14.98;12.40;;;13.00;86.00;;;;;;5051983;28;20250;-72
2023/02/07 09:04:44;;;;;;;16.58;14.68;;;13.30;83.80;;;;;;5050996;28;20291;-72
2023/02/07 09:07:12;;;;;;;15.50;13.75;;;13.10;83.50;;;;;;5052817;28;20588;-70
2023/02/07 09:09:39;;;;;;;16.15;14.45;;;12.90;83.10;;;;;;5048917;28;20325;-74
2023/02/07 09:12:07;;;;;;;15.98;13.75;;;12.20;81.70;;;;;;5052203;28;20289;-72
2023/02/07 09:14:35;;;;;;;17.27;14.57;;;12.00;82.70;;;;;;5050859;28;20290;-73
2023/02/07 09:17:02;;;;;;;18.05;15.18;;;12.00;83.90;;;;;;5052476;28;20965;-73
2023/02/07 09:19:29;;;;;;;16.48;14.25;;;11.40;84.10;;;;;;5050122;28;20253;-72
2023/02/07 09:21:56;;;;;;;14.57;13.07;;;11.50;85.50;;;;;;5049304;28;20250;-74
2023/02/07 09:24:24;;;;;;;16.55;14.02;;;12.30;84.50;;;;;;5045882;28;20654;-73
2023/02/07 09:26:53;;;;;;;18.90;15.40;;;13.40;82.00;;;;;;5050247;28;20294;-72
2023/02/07 09:29:20;;;;;;;17.03;15.33;;;13.30;80.30;;;;;;5041027;28;20286;-73
2023/02/07 09:31:49;;;;;;;15.90;14.20;;;13.60;80.30;;;;;;5050901;28;20456;-72
2023/02/07 09:34:16;;;;;;;13.97;12.57;;;13.90;80.20;;;;;;5051762;28;20230;-75
2023/02/07 09:36:43;;;;;;;14.40;12.60;;;14.50;78.20;;;;;;5048504;28;20461;-73
2023/02/07 09:39:11;;;;;;;17.67;15.15;;;14.20;77.30;;;;;;5050260;28;21016;-75
2023/02/07 09:41:46;;;;;;;17.38;13.88;;;13.30;78.40;;;;;;5047417;28;20206;-74
2023/02/07 09:44:17;;;;;;;16.05;14.23;;;13.00;79.50;;;;;;5049244;28;20198;-74
2023/02/07 09:46:54;;;;;;;17.33;13.48;;;13.00;80.70;;;;;;5049164;28;20730;-74
2023/02/07 09:49:33;;;;;;;16.40;13.02;;;12.40;80.30;;;;;;5040010;28;20204;-72
2023/02/07 09:52:02;;;;;;;15.73;13.15;;;12.10;81.60;;;;;;5044988;28;20203;-72
2023/02/07 09:54:35;;;;;;;16.45;13.52;;;10.80;84.10;;;;;;5048916;28;20247;-72
2023/02/07 09:57:09;;;;;;;14.38;12.15;;;10.90;86.20;;;;;;5050800;28;20277;-73
2023/02/07 09:59:45;;;;;;;16.52;12.98;;;11.10;85.20;;;;;;5050169;28;20251;-73
2023/02/07 10:02:24;;;;;;;19.23;14.05;;;11.20;84.80;;;;;;5048650;28;20428;-72
2023/02/07 10:04:57;;;;;;;15.65;12.93;;;10.80;84.50;;;;;;5043745;28;20250;-72
2023/02/07 10:07:24;;;;;;;14.50;12.80;;;10.80;86.20;;;;;;5051847;28;20203;-71
2023/02/07 10:09:51;;;;;;;16.20;13.77;;;11.10;87.30;;;;;;5044815;28;20648;-71
2023/02/07 10:12:45;;;;;;;14.25;12.43;;;10.20;86.70;;;;;;5051361;28;20206;-73
2023/02/07 10:15:27;;;;;;;15.68;11.80;;;10.30;87.30;;;;;;5043369;28;20239;-73
2023/02/07 10:18:18;;;;;;;15.70;12.27;;;10.60;86.40;;;;;;5046249;28;20199;-73
2023/02/07 10:20:52;;;;;;;14.25;12.45;;;11.60;88.40;;;;;;5044715;28;20228;-71
2023/02/07 10:23:35;;;;;;;16.27;13.57;;;11.80;85.00;;;;;;5050132;28;20256;-71
2023/02/07 10:26:11;;;;;;;17.50;11.52;;;11.80;83.40;;;;;;5045406;28;20253;-72
2023/02/07 10:29:20;;;;;;;16.27;11.60;;;11.50;84.50;;;;;;5041499;28;20611;-72
2023/02/07 10:31:50;;;;;;;13.52;11.15;;;11.40;85.20;;;;;;5040786;28;20246;-71
2023/02/07 10:34:22;;;;;;;20.20;13.13;;;11.30;85.20;;;;;;5045598;28;20624;-74
2023/02/07 10:36:51;;;;;;;16.55;13.82;;;11.70;84.60;;;;;;5048021;28;20309;-74
2023/02/07 10:39:24;;;;;;;19.48;13.07;;;11.20;84.10;;;;;;5042359;28;20232;-71
2023/02/07 10:41:54;;;;;;;20.80;13.68;;;11.10;86.00;;;;;;5050564;28;20191;-73
2023/02/07 10:44:21;;;;;;;20.40;13.30;;;11.30;86.70;;;;;;5042292;28;20662;-72
2023/02/07 10:46:55;;;;;;;16.13;12.07;;;11.30;86.50;;;;;;5045473;28;20287;-73
2023/02/07 10:49:26;;;;;;;15.90;13.52;;;11.60;85.40;;;;;;5040829;28;20210;-73
2023/02/07 10:51:57;;;;;;;19.98;14.45;;;11.70;85.30;;;;;;5041940;28;20213;-74
2023/02/07 10:54:25;;;;;;;17.38;14.05;;;10.90;85.80;;;;;;5047125;28;20774;-74
2023/02/07 10:56:55;;;;;;;19.77;13.32;;;10.00;88.10;;;;;;5046170;28;20598;-74
2023/02/07 10:59:44;;;;;;;18.15;14.05;;;9.60;90.20;;;;;;5051393;28;20206;-74
2023/02/07 11:02:48;;;;;;;21.00;14.05;;;9.10;91.30;;;;;;5049315;28;20221;-72
2023/02/07 11:05:41;;;;;;;22.38;15.75;;;8.60;92.30;;;;;;5018643;28;20222;-72
2023/02/07 11:08:22;;;;;;;18.00;12.65;;;8.00;93.80;;;;;;5051489;28;20226;-74
2023/02/07 11:10:51;;;;;;;19.08;13.30;;;7.70;94.60;;;;;;5044640;28;20264;-71
2023/02/07 11:13:20;;;;;;;16.98;13.25;;;7.50;95.30;;;;;;5054295;28;20255;-76
2023/02/07 11:15:51;;;;;;;17.08;13.52;;;7.30;96.00;;;;;;5044966;28;20247;-73
2023/02/07 11:18:32;;;;;;;19.88;14.30;;;7.10;96.50;;;;;;5047084;28;20679;-73
2023/02/07 11:21:00;;;;;;;15.50;13.55;;;6.80;97.60;;;;;;5052524;28;20736;-71
2023/02/07 11:23:29;;;;;;;20.50;14.85;;;6.90;98.20;;;;;;5046160;28;20606;-71
2023/02/07 11:25:56;;;;;;;18.30;14.73;;;6.70;98.70;;;;;;5049626;28;20317;-73
2023/02/07 11:28:26;;;;;;;19.45;15.05;;;6.50;99.20;;;;;;5052375;28;20321;-73
2023/02/07 11:30:57;;;;;;;26.33;14.35;;;6.30;99.30;;;;;;5053740;28;20222;-73
2023/02/07 11:33:28;;;;;;;18.75;14.13;;;6.30;99.90;;;;;;5052626;28;20626;-70
2023/02/07 11:36:10;;;;;;;16.67;13.57;;;6.00;99.90;;;;;;5048633;28;20236;-75
2023/02/07 11:38:39;;;;;;;20.30;14.52;;;6.00;99.90;;;;;;5052692;28;20288;-72
2023/02/07 11:41:15;;;;;;;18.75;14.18;;;5.70;99.90;;;;;;5048296;28;20292;-72
2023/02/07 11:43:54;;;;;;;19.23;14.43;;;5.70;99.90;;;;;;5053136;28;20196;-72
2023/02/07 11:46:22;;;;;;;17.27;13.85;;;5.60;99.90;;;;;;5049528;28;20216;-74
2023/02/07 11:48:53;;;;;;;23.05;16.65;;;5.60;99.90;;;;;;5054311;28;20213;-71
2023/02/07 11:51:22;;;;;;;23.20;14.60;;;5.50;99.90;;;;;;5052933;28;20229;-73
2023/02/07 11:53:54;;;;;;;23.48;14.20;;;5.40;99.90;;;;;;5047958;28;20216;-74
2023/02/07 11:56:25;;;;;;;16.95;13.18;;;5.30;99.90;;;;;;5049863;28;20317;-72
2023/02/07 11:58:53;;;;;;;16.15;13.07;;;5.10;99.90;;;;;;5045857;28;20716;-73
2023/02/07 12:01:24;;;;;;;23.05;13.05;;;5.10;99.90;;;;;;5041747;28;20234;-74
2023/02/07 12:03:59;;;;;;;21.02;11.90;;;5.00;99.90;;;;;;5053736;28;20201;-72
2023/02/07 12:06:34;;;;;;;17.08;12.43;;;4.90;99.90;;;;;;5052136;28;20211;-75
2023/02/07 12:09:03;;;;;;;15.75;12.52;;;4.80;99.90;;;;;;5053218;28;20298;-74
2023/02/07 12:11:35;;;;;;;18.42;11.35;;;4.80;99.90;;;;;;5053343;28;20259;-72
2023/02/07 12:14:09;;;;;;;18.05;11.20;;;4.80;99.90;;;;;;5049490;28;20204;-73
2023/02/07 12:16:41;;;;;;;13.00;10.50;;;4.90;99.90;;;;;;5045126;28;20242;-72
2023/02/07 12:19:18;;;;;;;16.88;10.40;;;5.00;99.90;;;;;;5051328;28;20196;-73
2023/02/07 12:21:56;;;;;;;14.20;10.40;;;5.00;99.90;;;;;;5045313;28;20211;-73
2023/02/07 12:24:29;;;;;;;17.55;12.23;;;5.10;99.90;;;;;;5051027;28;20286;-72
2023/02/07 12:27:01;;;;;;;15.98;10.52;;;4.90;99.20;;;;;;5053547;28;20721;-73
2023/02/07 12:29:42;;;;;;;16.75;11.50;;;5.00;99.10;;;;;;5051429;28;20489;-73
2023/02/07 12:32:15;;;;;;;16.95;11.40;;;5.00;98.70;;;;;;5053542;28;20287;-73
2023/02/07 12:34:49;;;;;;;15.88;10.07;;;5.00;98.30;;;;;;5042738;28;20250;-72
2023/02/07 12:37:27;;;;;;;13.77;10.43;;;4.90;98.50;;;;;;5042291;28;20279;-71
2023/02/07 12:40:02;;;;;;;11.63;10.00;;;4.90;98.60;;;;;;5041025;28;20196;-73
2023/02/07 12:42:38;;;;;;;13.63;10.90;;;4.80;98.50;;;;;;5044112;28;20207;-74
2023/02/07 12:45:07;;;;;;;12.20;8.80;;;4.70;99.10;;;;;;5041093;28;20713;-73
2023/02/07 12:47:47;;;;;;;17.77;9.65;;;4.80;99.20;;;;;;5056225;28;20196;-73
2023/02/07 12:50:36;;;;;;;13.05;10.25;;;4.70;99.20;;;;;;5053669;28;20207;-74
2023/02/07 12:53:23;;;;;;;14.38;10.48;;;4.60;99.70;;;;;;5051523;28;20242;-71
2023/02/07 12:56:03;;;;;;;12.82;9.82;;;4.60;99.90;;;;;;5041993;28;20250;-76